createdAt,value
2023-05-19T00:00:00.075Z,3.68
2023-05-19T00:01:08.716Z,3.77
2023-05-19T00:02:17.877Z,3.67
2023-05-19T00:03:28.933Z,3.48
2023-05-19T00:04:36.769Z,3.66
2023-05-19T00:05:47.240Z,3.68
2023-05-19T00:06:57.431Z,3.65
2023-05-19T00:08:04.818Z,3.67
2023-05-19T00:09:12.605Z,3.90
2023-05-19T00:10:20.894Z,3.65
2023-05-19T00:11:28.908Z,3.75
2023-05-19T00:12:36.012Z,3.79
2023-05-19T00:13:43.197Z,3.81
2023-05-19T00:14:50.496Z,3.81
2023-05-19T00:15:57.578Z,3.57
2023-05-19T00:17:05.534Z,3.66
2023-05-19T00:18:15.567Z,3.71
2023-05-19T00:19:23.301Z,3.70
2023-05-19T00:20:34.174Z,3.72
2023-05-19T00:21:41.707Z,3.72
2023-05-19T00:22:48.612Z,3.74
2023-05-19T00:23:55.643Z,3.69
2023-05-19T00:25:02.484Z,3.66
2023-05-19T00:26:12.729Z,3.62
2023-05-19T00:27:22.345Z,3.66
2023-05-19T00:28:29.909Z,3.70
2023-05-19T00:29:36.834Z,3.84
2023-05-19T00:30:45.146Z,3.74
2023-05-19T00:31:52.552Z,3.69
2023-05-19T00:32:59.792Z,3.78
2023-05-19T00:34:07.087Z,3.80
2023-05-19T00:35:13.989Z,3.79
2023-05-19T00:36:20.883Z,3.75
2023-05-19T00:37:31.513Z,3.74
2023-05-19T00:38:38.766Z,3.54
2023-05-19T00:39:45.661Z,3.67
2023-05-19T00:40:52.840Z,3.76
2023-05-19T00:41:59.417Z,3.86
2023-05-19T00:43:10.805Z,3.68
2023-05-19T00:44:18.383Z,3.83
2023-05-19T00:45:27.742Z,3.86
2023-05-19T00:46:36.086Z,3.69
2023-05-19T00:47:43.370Z,3.57
2023-05-19T00:48:51.320Z,3.71
2023-05-19T00:49:58.696Z,3.72
2023-05-19T00:51:07.816Z,3.72
2023-05-19T00:52:15.013Z,3.82
2023-05-19T00:53:22.277Z,3.66
2023-05-19T00:54:30.485Z,3.54
2023-05-19T00:55:38.754Z,3.63
2023-05-19T00:56:46.078Z,3.65
2023-05-19T00:57:53.679Z,3.75
2023-05-19T00:59:02.065Z,3.57
2023-05-19T01:00:11.491Z,3.63
2023-05-19T01:01:19.304Z,3.71
2023-05-19T01:02:27.086Z,3.85
2023-05-19T01:03:36.579Z,3.67
2023-05-19T01:04:46.047Z,3.64
2023-05-19T01:05:55.117Z,3.77
2023-05-19T01:07:02.986Z,3.78
2023-05-19T01:08:12.134Z,3.67
2023-05-19T01:09:20.024Z,3.75
2023-05-19T01:10:27.920Z,3.75
2023-05-19T01:11:35.015Z,3.83
2023-05-19T01:12:42.874Z,3.75
2023-05-19T01:13:49.757Z,3.60
2023-05-19T01:14:58.848Z,3.68
2023-05-19T01:16:33.438Z,3.73
2023-05-19T01:18:05.604Z,3.50
2023-05-19T01:19:52.074Z,3.61
2023-05-19T01:21:25.318Z,3.66
2023-05-19T01:22:49.570Z,3.69
2023-05-19T01:24:32.515Z,3.70
2023-05-19T01:26:11.675Z,3.62
2023-05-19T01:27:45.045Z,3.60
2023-05-19T01:29:07.996Z,3.77
2023-05-19T01:30:44.684Z,3.75
2023-05-19T01:31:52.371Z,3.53
2023-05-19T01:33:03.608Z,3.67
2023-05-19T01:34:11.579Z,3.71
2023-05-19T01:35:19.883Z,3.77
2023-05-19T01:36:27.820Z,3.71
2023-05-19T01:37:35.349Z,3.59
2023-05-19T01:38:42.534Z,3.62
2023-05-19T01:39:50.127Z,3.75
2023-05-19T01:40:58.287Z,3.61
2023-05-19T01:42:07.390Z,3.67
2023-05-19T01:43:21.267Z,3.62
2023-05-19T01:44:30.047Z,3.53
2023-05-19T01:45:38.810Z,3.67
2023-05-19T01:46:46.051Z,3.67
2023-05-19T01:47:57.148Z,3.63
2023-05-19T01:49:05.950Z,3.65
2023-05-19T01:50:14.019Z,3.51
2023-05-19T01:51:21.582Z,3.65
2023-05-19T01:52:29.254Z,3.71
2023-05-19T01:53:37.093Z,3.59
2023-05-19T01:54:45.135Z,3.60
2023-05-19T01:55:55.194Z,3.56
2023-05-19T01:57:14.932Z,3.54
2023-05-19T01:58:39.932Z,3.55
2023-05-19T02:00:26.383Z,3.61
2023-05-19T02:01:39.957Z,3.64
2023-05-19T02:03:08.434Z,3.66
2023-05-19T02:04:41.262Z,3.68
2023-05-19T02:05:58.778Z,3.67
2023-05-19T02:07:39.771Z,3.67
2023-05-19T02:09:05.293Z,3.70
2023-05-19T02:10:25.142Z,3.80
2023-05-19T02:11:56.894Z,3.70
2023-05-19T02:13:05.739Z,3.66
2023-05-19T02:14:37.960Z,3.58
2023-05-19T02:15:45.931Z,3.48
2023-05-19T02:16:53.476Z,3.59
2023-05-19T02:18:02.017Z,3.63
2023-05-19T02:19:18.440Z,3.76
2023-05-19T02:20:26.895Z,3.62
2023-05-19T02:21:35.294Z,3.66
2023-05-19T02:22:43.366Z,3.65
2023-05-19T02:23:52.389Z,3.62
2023-05-19T02:25:00.144Z,3.71
2023-05-19T02:26:07.375Z,3.71
2023-05-19T02:27:15.169Z,3.75
2023-05-19T02:28:24.932Z,3.82
2023-05-19T02:29:32.978Z,3.64
2023-05-19T02:30:40.261Z,3.55
2023-05-19T02:31:47.932Z,3.53
2023-05-19T02:32:56.002Z,3.70
2023-05-19T02:34:03.820Z,3.49
2023-05-19T02:35:11.864Z,3.71
2023-05-19T02:36:20.735Z,3.48
2023-05-19T02:37:30.095Z,3.57
2023-05-19T02:38:38.019Z,3.71
2023-05-19T02:39:47.610Z,3.59
2023-05-19T02:40:54.909Z,3.57
2023-05-19T02:42:02.649Z,3.47
2023-05-19T02:43:10.818Z,3.55
2023-05-19T02:44:17.808Z,3.55
2023-05-19T02:45:25.646Z,3.50
2023-05-19T02:46:34.767Z,3.39
2023-05-19T02:47:42.761Z,3.61
2023-05-19T02:48:50.591Z,3.65
2023-05-19T02:49:58.268Z,3.65
2023-05-19T02:51:05.719Z,3.53
2023-05-19T02:52:14.123Z,3.56
2023-05-19T02:53:22.019Z,3.57
2023-05-19T02:54:30.058Z,3.71
2023-05-19T02:55:39.153Z,3.59
2023-05-19T02:56:46.722Z,3.63
2023-05-19T02:57:55.100Z,3.47
2023-05-19T02:59:03.857Z,3.59
2023-05-19T03:00:11.947Z,3.57
2023-05-19T03:01:19.771Z,3.47
2023-05-19T03:02:28.684Z,3.68
2023-05-19T03:03:36.856Z,3.52
2023-05-19T03:04:44.297Z,3.63
2023-05-19T03:05:52.321Z,3.59
2023-05-19T03:07:00.343Z,3.72
2023-05-19T03:08:07.846Z,3.63
2023-05-19T03:09:16.600Z,3.46
2023-05-19T03:10:24.156Z,3.56
2023-05-19T03:11:32.610Z,3.56
2023-05-19T03:12:39.999Z,3.52
2023-05-19T03:13:47.750Z,3.65
2023-05-19T03:14:55.598Z,3.55
2023-05-19T03:16:03.757Z,3.68
2023-05-19T03:17:11.892Z,3.72
2023-05-19T03:18:19.736Z,3.46
2023-05-19T03:19:29.275Z,3.49
2023-05-19T03:20:36.510Z,3.58
2023-05-19T03:21:44.494Z,3.53
2023-05-19T03:22:51.979Z,3.52
2023-05-19T03:24:00.484Z,3.56
2023-05-19T03:25:08.337Z,3.55
2023-05-19T03:26:16.110Z,3.57
2023-05-19T03:27:24.666Z,3.49
2023-05-19T03:28:33.126Z,3.51
2023-05-19T03:29:40.441Z,3.59
2023-05-19T03:30:47.521Z,3.54
2023-05-19T03:31:57.807Z,3.50
2023-05-19T03:33:07.484Z,3.40
2023-05-19T03:34:14.470Z,3.42
2023-05-19T03:35:22.004Z,3.50
2023-05-19T03:36:33.100Z,3.68
2023-05-19T03:37:40.229Z,3.61
2023-05-19T03:38:50.789Z,3.53
2023-05-19T03:40:00.013Z,3.60
2023-05-19T03:41:07.832Z,3.55
2023-05-19T03:42:14.808Z,3.53
2023-05-19T03:43:21.899Z,3.43
2023-05-19T03:44:35.559Z,3.59
2023-05-19T03:45:42.339Z,3.53
2023-05-19T03:47:10.408Z,3.50
2023-05-19T03:48:37.263Z,3.51
2023-05-19T03:50:05.163Z,3.54
2023-05-19T03:51:22.043Z,3.60
2023-05-19T03:52:30.563Z,3.58
2023-05-19T03:53:44.517Z,3.53
2023-05-19T03:54:52.408Z,3.73
2023-05-19T03:55:59.730Z,3.58
2023-05-19T03:57:08.184Z,3.59
2023-05-19T03:58:15.969Z,3.57
2023-05-19T03:59:25.480Z,3.65
2023-05-19T04:00:33.550Z,3.61
2023-05-19T04:01:41.594Z,3.66
2023-05-19T04:02:49.453Z,3.59
2023-05-19T04:03:56.274Z,3.42
2023-05-19T04:05:06.866Z,3.47
2023-05-19T04:06:15.299Z,3.36
2023-05-19T04:07:23.887Z,3.39
2023-05-19T04:08:32.030Z,3.32
2023-05-19T04:09:40.425Z,3.21
2023-05-19T04:10:47.970Z,3.17
2023-05-19T04:11:56.424Z,3.31
2023-05-19T04:13:05.255Z,3.05
2023-05-19T04:14:12.275Z,3.10
2023-05-19T04:15:20.043Z,3.05
2023-05-19T04:16:28.546Z,2.89
2023-05-19T04:17:36.968Z,2.89
2023-05-19T04:18:44.117Z,2.92
2023-05-19T04:19:52.488Z,2.88
2023-05-19T04:21:01.078Z,2.82
2023-05-19T04:22:08.600Z,2.86
2023-05-19T04:23:16.141Z,2.53
2023-05-19T04:24:24.598Z,2.70
2023-05-19T04:25:33.720Z,2.61
2023-05-19T04:26:43.137Z,2.70
2023-05-19T04:27:52.964Z,2.75
2023-05-19T04:29:00.849Z,2.68
2023-05-19T04:30:11.547Z,2.56
2023-05-19T04:31:20.362Z,2.53
2023-05-19T04:32:30.094Z,2.53
2023-05-19T04:33:39.435Z,2.53
2023-05-19T04:34:47.376Z,2.28
2023-05-19T04:36:02.947Z,2.27
2023-05-19T04:37:12.021Z,2.35
2023-05-19T04:38:21.573Z,2.22
2023-05-19T04:39:29.575Z,2.20
2023-05-19T04:40:37.751Z,2.02
2023-05-19T04:41:46.837Z,2.16
2023-05-19T04:42:55.310Z,2.06
2023-05-19T04:44:03.691Z,2.02
2023-05-19T04:45:14.330Z,2.10
2023-05-19T04:46:26.529Z,2.02
2023-05-19T04:47:38.492Z,1.93
2023-05-19T04:48:45.407Z,1.96
2023-05-19T04:49:57.992Z,2.02
2023-05-19T04:51:05.941Z,1.90
2023-05-19T04:52:14.029Z,1.75
2023-05-19T04:53:23.831Z,1.79
2023-05-19T04:54:31.341Z,1.63
2023-05-19T04:55:40.217Z,1.74
2023-05-19T04:56:49.225Z,1.69
2023-05-19T04:57:57.941Z,1.77
2023-05-19T04:59:06.508Z,1.78
2023-05-19T05:00:16.491Z,1.66
2023-05-19T05:01:36.035Z,1.51
2023-05-19T05:02:44.284Z,1.81
2023-05-19T05:03:52.968Z,1.78
2023-05-19T05:05:01.086Z,1.61
2023-05-19T05:06:09.122Z,1.57
2023-05-19T05:07:16.997Z,1.45
2023-05-19T05:08:25.206Z,1.47
2023-05-19T05:09:34.032Z,1.54
2023-05-19T05:10:42.819Z,1.51
2023-05-19T05:11:50.709Z,1.47
2023-05-19T05:12:58.871Z,1.37
2023-05-19T05:14:05.732Z,1.18
2023-05-19T05:15:13.356Z,1.22
2023-05-19T05:16:20.647Z,1.31
2023-05-19T05:17:30.541Z,1.23
2023-05-19T05:18:41.163Z,1.21
2023-05-19T05:19:52.274Z,1.35
2023-05-19T05:21:01.448Z,1.30
2023-05-19T05:22:10.208Z,1.22
2023-05-19T05:23:20.589Z,1.27
2023-05-19T05:24:29.435Z,1.30
2023-05-19T05:25:39.117Z,1.16
2023-05-19T05:26:47.684Z,1.23
2023-05-19T05:27:57.054Z,1.26
2023-05-19T05:29:06.193Z,1.23
2023-05-19T05:30:15.671Z,1.01
2023-05-19T05:31:23.159Z,1.16
2023-05-19T05:32:32.708Z,1.20
2023-05-19T05:33:41.135Z,1.17
2023-05-19T05:34:49.893Z,1.01
2023-05-19T05:35:58.020Z,0.88
2023-05-19T05:37:06.523Z,0.85
2023-05-19T05:38:15.549Z,1.12
2023-05-19T05:39:23.879Z,1.04
2023-05-19T05:40:32.119Z,0.97
2023-05-19T05:41:39.012Z,0.96
2023-05-19T05:42:51.556Z,0.94
2023-05-19T05:43:59.027Z,1.11
2023-05-19T05:45:07.506Z,1.05
2023-05-19T05:46:15.392Z,0.96
2023-05-19T05:47:22.802Z,1.01
2023-05-19T05:48:32.007Z,0.86
2023-05-19T05:49:40.774Z,0.94
2023-05-19T05:50:48.440Z,0.91
2023-05-19T05:52:05.709Z,0.87
2023-05-19T05:53:20.916Z,0.87
2023-05-19T05:54:32.955Z,0.91
2023-05-19T05:55:40.178Z,0.83
2023-05-19T05:56:48.554Z,0.78
2023-05-19T05:57:58.958Z,0.80
2023-05-19T05:59:07.237Z,0.89
2023-05-19T06:00:18.907Z,0.87
2023-05-19T06:01:33.686Z,0.95
2023-05-19T06:02:49.650Z,0.88
2023-05-19T06:03:57.740Z,0.95
2023-05-19T06:05:07.219Z,0.84
2023-05-19T06:06:15.021Z,0.76
2023-05-19T06:07:24.480Z,0.85
2023-05-19T06:08:32.618Z,0.92
2023-05-19T06:09:39.867Z,0.90
2023-05-19T06:10:49.061Z,0.76
2023-05-19T06:11:56.923Z,0.77
2023-05-19T06:13:05.043Z,0.80
2023-05-19T06:14:14.190Z,0.75
2023-05-19T06:15:35.150Z,0.87
2023-05-19T06:16:50.371Z,0.73
2023-05-19T06:17:58.665Z,0.69
2023-05-19T06:19:06.408Z,0.77
2023-05-19T06:20:15.129Z,0.81
2023-05-19T06:21:23.317Z,0.79
2023-05-19T06:22:31.502Z,0.62
2023-05-19T06:23:39.302Z,0.64
2023-05-19T06:24:48.374Z,0.61
2023-05-19T06:25:56.466Z,0.71
2023-05-19T06:27:05.045Z,0.70
2023-05-19T06:28:13.330Z,0.56
2023-05-19T06:29:20.781Z,0.50
2023-05-19T06:30:30.026Z,0.36
2023-05-19T06:31:43.545Z,0.43
2023-05-19T06:32:53.916Z,0.40
2023-05-19T06:34:02.972Z,0.41
2023-05-19T06:35:10.303Z,0.37
2023-05-19T06:36:18.035Z,0.32
2023-05-19T06:37:26.803Z,0.41
2023-05-19T06:38:35.925Z,0.45
2023-05-19T06:39:42.967Z,0.49
2023-05-19T06:40:51.204Z,0.42
2023-05-19T06:41:58.971Z,0.44
2023-05-19T06:43:27.427Z,0.29
2023-05-19T06:44:42.368Z,0.33
2023-05-19T06:45:50.470Z,0.35
2023-05-19T06:46:57.993Z,0.40
2023-05-19T06:48:05.262Z,0.46
2023-05-19T06:49:13.083Z,0.36
2023-05-19T06:50:22.209Z,0.22
2023-05-19T06:51:29.153Z,0.34
2023-05-19T06:52:36.301Z,0.36
2023-05-19T06:53:42.991Z,0.35
2023-05-19T06:54:51.225Z,0.24
2023-05-19T06:55:59.844Z,0.34
2023-05-19T06:57:11.696Z,0.25
2023-05-19T06:58:18.858Z,0.24
2023-05-19T06:59:25.951Z,0.26
2023-05-19T07:00:32.890Z,0.26
2023-05-19T07:01:40.748Z,0.17
2023-05-19T07:02:49.058Z,0.19
2023-05-19T07:03:56.779Z,0.24
2023-05-19T07:05:04.888Z,0.23
2023-05-19T07:06:12.416Z,0.28
2023-05-19T07:07:20.585Z,0.34
2023-05-19T07:08:29.315Z,0.26
2023-05-19T07:09:37.196Z,0.18
2023-05-19T07:10:44.969Z,0.18
2023-05-19T07:11:53.634Z,0.23
2023-05-19T07:13:01.010Z,0.26
2023-05-19T07:14:12.690Z,0.24
2023-05-19T07:15:20.637Z,0.25
2023-05-19T07:16:29.133Z,0.17
2023-05-19T07:17:35.802Z,0.25
2023-05-19T07:18:42.492Z,0.23
2023-05-19T07:19:50.810Z,0.19
2023-05-19T07:20:59.445Z,0.22
2023-05-19T07:22:06.736Z,0.15
2023-05-19T07:23:14.312Z,0.17
2023-05-19T07:24:24.278Z,0.18
2023-05-19T07:25:32.084Z,0.17
2023-05-19T07:26:40.271Z,0.15
2023-05-19T07:27:47.162Z,0.09
2023-05-19T07:28:55.320Z,0.10
2023-05-19T07:30:02.824Z,0.17
2023-05-19T07:31:09.773Z,0.10
2023-05-19T07:32:17.216Z,0.15
2023-05-19T07:33:25.063Z,0.13
2023-05-19T07:34:32.648Z,0.13
2023-05-19T07:35:39.433Z,0.09
2023-05-19T07:36:46.106Z,0.10
2023-05-19T07:37:54.528Z,0.18
2023-05-19T07:39:01.752Z,0.18
2023-05-19T07:40:12.829Z,0.13
2023-05-19T07:41:19.836Z,0.06
2023-05-19T07:42:27.274Z,0.06
2023-05-19T07:43:34.118Z,0.09
2023-05-19T07:44:41.738Z,0.06
2023-05-19T07:45:49.858Z,0.04
2023-05-19T07:46:56.942Z,0.06
2023-05-19T07:48:04.170Z,0.07
2023-05-19T07:49:11.730Z,0.07
2023-05-19T07:50:18.919Z,0.10
2023-05-19T07:51:27.937Z,0.07
2023-05-19T07:52:35.466Z,0.03
2023-05-19T07:53:43.236Z,0.06
2023-05-19T07:54:50.996Z,0.13
2023-05-19T07:55:58.913Z,0.05
2023-05-19T07:57:07.056Z,0.16
2023-05-19T07:58:17.098Z,0.12
2023-05-19T07:59:23.828Z,0.05
2023-05-19T08:00:30.794Z,0.01
2023-05-19T08:01:38.246Z,0.03
2023-05-19T08:02:45.434Z,0.04
2023-05-19T08:03:52.846Z,0.02
2023-05-19T08:05:00.349Z,0.02
2023-05-19T08:06:08.028Z,0.10
2023-05-19T08:07:14.961Z,0.06
2023-05-19T08:08:21.723Z,0.03
2023-05-19T08:09:29.580Z,0.03
2023-05-19T08:10:36.452Z,0.03
2023-05-19T08:11:43.094Z,0.03
2023-05-19T08:12:50.443Z,0.06
2023-05-19T08:13:57.470Z,0.04
2023-05-19T08:15:05.260Z,0.05
2023-05-19T08:16:12.974Z,0.01
2023-05-19T08:17:20.653Z,0.03
2023-05-19T08:18:29.394Z,0.05
2023-05-19T08:19:37.037Z,0.00
2023-05-19T08:20:44.494Z,0.00
2023-05-19T08:21:52.945Z,0.00
2023-05-19T08:23:01.399Z,0.02
2023-05-19T08:24:08.864Z,0.04
2023-05-19T08:25:17.733Z,0.03
2023-05-19T08:26:25.885Z,0.03
2023-05-19T08:27:34.140Z,0.01
2023-05-19T08:28:41.570Z,0.00
2023-05-19T08:29:49.408Z,0.00
2023-05-19T08:30:56.627Z,0.01
2023-05-19T08:32:05.096Z,0.01
2023-05-19T08:33:13.926Z,0.05
2023-05-19T08:34:21.743Z,0.06
2023-05-19T08:35:30.246Z,0.08
2023-05-19T08:36:37.145Z,0.01
2023-05-19T08:37:45.896Z,0.03
2023-05-19T08:38:53.837Z,0.02
2023-05-19T08:40:01.531Z,0.02
2023-05-19T08:41:10.379Z,0.00
2023-05-19T08:42:17.910Z,0.01
2023-05-19T08:43:26.369Z,0.06
2023-05-19T08:44:34.015Z,0.04
2023-05-19T08:45:45.257Z,0.00
2023-05-19T08:46:54.937Z,0.00
2023-05-19T08:48:02.716Z,0.00
2023-05-19T08:49:14.012Z,0.00
2023-05-19T08:50:26.064Z,0.00
2023-05-19T08:51:46.532Z,0.00
2023-05-19T08:53:18.131Z,0.04
2023-05-19T08:54:36.573Z,0.02
2023-05-19T08:56:05.090Z,0.01
2023-05-19T08:57:12.961Z,0.00
2023-05-19T08:58:22.224Z,0.00
2023-05-19T08:59:29.921Z,0.00
2023-05-19T09:00:37.841Z,0.01
2023-05-19T09:01:48.967Z,0.00
2023-05-19T09:03:00.987Z,0.00
2023-05-19T09:04:19.056Z,0.00
2023-05-19T09:05:26.401Z,0.00
2023-05-19T09:06:34.009Z,0.00
2023-05-19T09:07:44.118Z,0.00
2023-05-19T09:08:51.654Z,0.00
2023-05-19T09:09:58.316Z,0.00
2023-05-19T09:11:06.210Z,0.01
2023-05-19T09:12:14.484Z,0.00
2023-05-19T09:13:21.849Z,0.00
2023-05-19T09:14:29.177Z,0.00
2023-05-19T09:15:38.304Z,0.00
2023-05-19T09:16:44.895Z,0.00
2023-05-19T09:17:52.425Z,0.00
2023-05-19T09:19:00.342Z,0.00
2023-05-19T09:20:13.182Z,0.00
2023-05-19T09:21:20.038Z,0.00
2023-05-19T09:22:28.511Z,0.00
2023-05-19T09:23:36.456Z,0.01
2023-05-19T09:24:44.190Z,0.01
2023-05-19T09:25:53.353Z,0.00
2023-05-19T09:27:01.179Z,0.01
2023-05-19T09:28:09.828Z,0.00
2023-05-19T09:29:20.748Z,0.00
2023-05-19T09:30:28.022Z,0.00
2023-05-19T09:31:35.430Z,0.00
2023-05-19T09:32:43.531Z,0.00
2023-05-19T09:33:55.278Z,0.00
2023-05-19T09:35:05.363Z,0.00
2023-05-19T09:36:13.301Z,0.00
2023-05-19T09:37:24.830Z,0.00
2023-05-19T09:38:32.346Z,0.00
2023-05-19T09:39:39.390Z,0.00
2023-05-19T09:40:47.098Z,0.00
2023-05-19T09:42:00.710Z,0.00
2023-05-19T09:43:09.984Z,0.00
2023-05-19T09:44:25.644Z,0.00
2023-05-19T09:45:33.986Z,0.00
2023-05-19T09:46:46.766Z,0.00
2023-05-19T09:47:55.105Z,0.00
2023-05-19T09:49:11.567Z,0.00
2023-05-19T09:50:18.801Z,0.00
2023-05-19T09:51:25.793Z,0.00
2023-05-19T09:52:32.987Z,0.00
2023-05-19T09:53:43.600Z,0.00
2023-05-19T09:54:52.963Z,0.00
2023-05-19T09:56:00.246Z,0.00
2023-05-19T09:57:08.956Z,0.00
2023-05-19T09:58:19.308Z,0.00
2023-05-19T09:59:33.006Z,0.00
2023-05-19T10:00:41.154Z,0.00
2023-05-19T10:01:48.454Z,0.00
2023-05-19T10:02:55.289Z,0.00
2023-05-19T10:04:03.127Z,0.00
2023-05-19T10:05:13.474Z,0.00
2023-05-19T10:06:20.760Z,0.00
2023-05-19T10:07:29.453Z,0.00
2023-05-19T10:08:37.314Z,0.00
2023-05-19T10:09:44.602Z,0.00
2023-05-19T10:10:53.022Z,0.00
2023-05-19T10:12:01.671Z,0.00
2023-05-19T10:13:09.622Z,0.00
2023-05-19T10:14:17.482Z,0.00
2023-05-19T10:15:25.299Z,0.00
2023-05-19T10:16:33.802Z,0.00
2023-05-19T10:17:44.935Z,0.00
2023-05-19T10:18:52.365Z,0.00
2023-05-19T10:19:59.215Z,0.00
2023-05-19T10:21:08.024Z,0.00
2023-05-19T10:22:16.776Z,0.00
2023-05-19T10:23:25.352Z,0.00
2023-05-19T10:24:33.252Z,0.00
2023-05-19T10:25:41.340Z,0.00
2023-05-19T10:27:06.471Z,0.00
2023-05-19T10:28:16.864Z,0.00
2023-05-19T10:29:28.561Z,0.00
2023-05-19T10:30:39.632Z,0.00
2023-05-19T10:31:48.108Z,0.00
2023-05-19T10:32:56.259Z,0.00
2023-05-19T10:34:42.888Z,0.00
2023-05-19T10:36:23.341Z,0.00
2023-05-19T10:37:49.352Z,0.00
2023-05-19T10:39:09.012Z,0.00
2023-05-19T10:40:25.177Z,0.00
2023-05-19T10:43:16.314Z,0.00
2023-05-19T10:45:02.667Z,0.00
2023-05-19T10:46:10.197Z,0.00
2023-05-19T10:47:18.679Z,0.00
2023-05-19T10:48:26.625Z,0.00
2023-05-19T10:49:37.876Z,0.00
2023-05-19T10:50:49.493Z,0.00
2023-05-19T10:51:59.910Z,0.00
2023-05-19T10:53:07.750Z,0.00
2023-05-19T10:54:17.840Z,0.00
2023-05-19T10:55:49.690Z,0.00
2023-05-19T10:56:57.153Z,0.00
2023-05-19T10:58:04.704Z,0.00
2023-05-19T10:59:32.808Z,0.00
2023-05-19T11:00:40.036Z,0.00
2023-05-19T11:01:48.820Z,0.00
2023-05-19T11:03:02.641Z,0.00
2023-05-19T11:04:15.493Z,0.00
2023-05-19T11:05:32.351Z,0.00
2023-05-19T11:06:41.477Z,0.00
2023-05-19T11:07:59.039Z,0.00
2023-05-19T11:09:22.541Z,0.00
2023-05-19T11:10:36.648Z,0.00
2023-05-19T11:11:52.790Z,0.00
2023-05-19T11:13:01.609Z,0.00
2023-05-19T11:14:09.768Z,0.00
2023-05-19T11:15:18.560Z,0.00
2023-05-19T11:16:33.429Z,0.00
2023-05-19T11:17:42.733Z,0.00
2023-05-19T11:18:56.250Z,0.00
2023-05-19T11:20:04.130Z,0.00
2023-05-19T11:21:12.504Z,0.00
2023-05-19T11:22:19.340Z,0.00
2023-05-19T11:23:28.182Z,0.00
2023-05-19T11:24:41.441Z,0.00
2023-05-19T11:25:55.377Z,0.00
2023-05-19T11:27:05.293Z,0.00
2023-05-19T11:28:16.618Z,0.00
2023-05-19T11:29:24.952Z,0.00
2023-05-19T11:30:34.074Z,0.00
2023-05-19T11:31:41.478Z,0.00
2023-05-19T11:32:49.840Z,0.00
2023-05-19T11:33:58.904Z,0.00
2023-05-19T11:35:06.160Z,0.00
2023-05-19T11:36:14.612Z,0.00
2023-05-19T11:37:21.756Z,0.00
2023-05-19T11:38:30.500Z,0.00
2023-05-19T11:39:39.262Z,0.02
2023-05-19T11:40:48.165Z,0.00
2023-05-19T11:41:57.924Z,0.08
2023-05-19T11:43:05.776Z,0.05
2023-05-19T11:44:14.550Z,0.05
2023-05-19T11:45:27.980Z,0.04
2023-05-19T11:46:36.953Z,0.11
2023-05-19T11:48:00.225Z,0.16
2023-05-19T11:49:09.780Z,0.18
2023-05-19T11:50:18.924Z,0.29
2023-05-19T11:51:27.151Z,0.32
2023-05-19T11:52:34.943Z,0.37
2023-05-19T11:53:42.272Z,0.39
2023-05-19T11:54:51.195Z,0.43
2023-05-19T11:55:59.835Z,0.45
2023-05-19T11:57:10.413Z,0.45
2023-05-19T11:58:18.635Z,0.55
2023-05-19T11:59:36.394Z,0.65
2023-05-19T12:00:44.545Z,0.72
2023-05-19T12:01:51.226Z,0.67
2023-05-19T12:02:59.078Z,0.80
2023-05-19T12:04:13.773Z,0.80
2023-05-19T12:05:24.980Z,0.89
2023-05-19T12:06:34.190Z,0.82
2023-05-19T12:07:42.644Z,0.89
2023-05-19T12:08:50.492Z,0.94
2023-05-19T12:09:58.011Z,0.95
2023-05-19T12:11:05.836Z,0.99
2023-05-19T12:12:15.941Z,0.95
2023-05-19T12:13:23.974Z,1.05
2023-05-19T12:14:32.891Z,1.01
2023-05-19T12:15:40.539Z,1.05
2023-05-19T12:16:48.327Z,1.07
2023-05-19T12:18:01.090Z,1.13
2023-05-19T12:19:09.422Z,1.17
2023-05-19T12:20:17.546Z,1.28
2023-05-19T12:21:24.405Z,1.19
2023-05-19T12:22:41.550Z,1.25
2023-05-19T12:23:50.327Z,1.24
2023-05-19T12:24:57.912Z,1.31
2023-05-19T12:26:07.332Z,1.34
2023-05-19T12:27:25.840Z,1.34
2023-05-19T12:28:33.367Z,1.35
2023-05-19T12:29:41.568Z,1.33
2023-05-19T12:30:53.892Z,1.47
2023-05-19T12:32:01.843Z,1.49
2023-05-19T12:33:11.562Z,1.50
2023-05-19T12:34:21.427Z,1.49
2023-05-19T12:35:35.454Z,1.56
2023-05-19T12:36:43.287Z,1.62
2023-05-19T12:37:50.834Z,1.53
2023-05-19T12:38:57.560Z,1.66
2023-05-19T12:40:09.318Z,1.65
2023-05-19T12:41:17.323Z,1.70
2023-05-19T12:42:25.738Z,1.74
2023-05-19T12:43:33.765Z,1.74
2023-05-19T12:44:45.932Z,1.70
2023-05-19T12:45:53.764Z,1.87
2023-05-19T12:47:00.906Z,1.82
2023-05-19T12:48:13.033Z,1.80
2023-05-19T12:49:20.877Z,1.87
2023-05-19T12:50:35.912Z,1.97
2023-05-19T12:51:42.656Z,1.93
2023-05-19T12:52:54.614Z,1.90
2023-05-19T12:54:06.813Z,1.95
2023-05-19T12:55:15.034Z,1.94
2023-05-19T12:56:22.538Z,2.02
2023-05-19T12:57:34.409Z,2.04
2023-05-19T12:58:41.929Z,2.01
2023-05-19T12:59:50.088Z,2.00
2023-05-19T13:01:01.602Z,2.10
2023-05-19T13:02:09.039Z,2.06
2023-05-19T13:03:23.108Z,1.99
2023-05-19T13:04:33.553Z,2.08
2023-05-19T13:05:44.593Z,2.05
2023-05-19T13:06:52.229Z,2.16
2023-05-19T13:08:00.834Z,2.15
2023-05-19T13:09:08.537Z,2.20
2023-05-19T13:10:16.919Z,2.19
2023-05-19T13:11:24.381Z,2.21
2023-05-19T13:12:31.732Z,2.18
2023-05-19T13:13:39.373Z,2.26
2023-05-19T13:14:47.654Z,2.28
2023-05-19T13:15:55.534Z,2.17
2023-05-19T13:17:02.702Z,2.22
2023-05-19T13:18:11.296Z,2.18
2023-05-19T13:20:30.976Z,2.21
2023-05-19T13:21:38.327Z,2.24
2023-05-19T13:22:46.676Z,2.33
2023-05-19T13:23:55.540Z,2.28
2023-05-19T13:25:03.685Z,2.31
2023-05-19T13:26:12.753Z,2.34
2023-05-19T13:27:20.160Z,2.31
2023-05-19T13:28:28.623Z,2.26
2023-05-19T13:29:39.112Z,2.33
2023-05-19T13:30:47.061Z,2.35
2023-05-19T13:31:53.578Z,2.43
2023-05-19T13:33:00.286Z,2.29
2023-05-19T13:34:07.972Z,2.30
2023-05-19T13:35:16.759Z,2.46
2023-05-19T13:36:23.616Z,2.46
2023-05-19T13:37:30.931Z,2.44
2023-05-19T13:38:37.815Z,2.47
2023-05-19T13:39:44.628Z,2.38
2023-05-19T13:40:51.430Z,2.38
2023-05-19T13:42:04.144Z,2.41
2023-05-19T13:43:11.022Z,2.42
2023-05-19T13:44:18.227Z,2.49
2023-05-19T13:45:24.868Z,2.45
2023-05-19T13:46:43.849Z,2.48
2023-05-19T13:47:51.991Z,2.50
2023-05-19T13:48:58.653Z,2.49
2023-05-19T13:50:06.546Z,2.50
2023-05-19T13:51:13.804Z,2.43
2023-05-19T13:52:22.297Z,2.41
2023-05-19T13:53:29.286Z,2.43
2023-05-19T13:54:39.637Z,2.56
2023-05-19T13:55:46.443Z,2.44
2023-05-19T13:56:53.828Z,2.39
2023-05-19T13:58:01.269Z,2.50
2023-05-19T13:59:08.703Z,2.53
2023-05-19T14:00:16.568Z,2.57
2023-05-19T14:01:23.661Z,2.47
2023-05-19T14:02:31.250Z,2.58
2023-05-19T14:03:38.707Z,2.59
2023-05-19T14:04:45.546Z,2.53
2023-05-19T14:05:55.287Z,2.64
2023-05-19T14:07:02.390Z,2.60
2023-05-19T14:08:09.256Z,2.55
2023-05-19T14:09:17.059Z,2.63
2023-05-19T14:10:24.049Z,2.67
2023-05-19T14:11:30.594Z,2.60
2023-05-19T14:12:55.149Z,2.59
2023-05-19T14:14:04.761Z,2.70
2023-05-19T14:15:12.390Z,2.70
2023-05-19T14:16:19.789Z,2.73
2023-05-19T14:17:28.392Z,2.71
2023-05-19T14:18:35.053Z,2.68
2023-05-19T14:19:42.066Z,2.76
2023-05-19T14:20:48.658Z,2.63
2023-05-19T14:21:55.988Z,2.62
2023-05-19T14:23:03.135Z,2.57
2023-05-19T14:24:09.964Z,2.66
2023-05-19T14:25:17.271Z,2.66
2023-05-19T14:26:24.510Z,2.56
2023-05-19T14:27:31.462Z,2.67
2023-05-19T14:28:38.143Z,2.68
2023-05-19T14:29:44.849Z,2.65
2023-05-19T14:30:52.484Z,2.62
2023-05-19T14:31:59.842Z,2.71
2023-05-19T14:33:07.131Z,2.62
2023-05-19T14:34:14.034Z,2.65
2023-05-19T14:35:21.974Z,2.69
2023-05-19T14:36:29.825Z,2.68
2023-05-19T14:37:37.854Z,2.73
2023-05-19T14:38:45.454Z,2.73
2023-05-19T14:39:53.837Z,2.71
2023-05-19T14:41:01.513Z,2.78
2023-05-19T14:42:09.024Z,2.72
2023-05-19T14:43:17.515Z,2.66
2023-05-19T14:44:25.616Z,2.66
2023-05-19T14:45:33.275Z,2.73
2023-05-19T14:46:40.293Z,2.74
2023-05-19T14:47:48.456Z,2.74
2023-05-19T14:48:56.572Z,2.90
2023-05-19T14:50:04.748Z,2.95
2023-05-19T14:51:12.893Z,2.92
2023-05-19T14:52:21.066Z,3.09
2023-05-19T14:53:29.073Z,3.61
2023-05-19T14:54:36.135Z,4.35
2023-05-19T14:55:42.901Z,5.12
2023-05-19T14:56:51.131Z,5.50
2023-05-19T14:57:59.908Z,5.81
2023-05-19T14:59:07.691Z,6.14
2023-05-19T15:00:16.636Z,6.58
2023-05-19T15:01:23.770Z,7.03
2023-05-19T15:02:31.940Z,7.11
2023-05-19T15:03:38.823Z,7.02
2023-05-19T15:04:45.577Z,7.00
2023-05-19T15:05:52.834Z,7.21
2023-05-19T15:08:11.463Z,7.34
2023-05-19T15:09:18.646Z,7.76
2023-05-19T15:10:26.560Z,7.96
2023-05-19T15:11:33.376Z,8.43
2023-05-19T15:12:40.255Z,8.64
2023-05-19T15:13:47.796Z,8.96
2023-05-19T15:14:55.307Z,9.53
2023-05-19T15:16:16.294Z,9.87
2023-05-19T15:17:24.651Z,10.22
2023-05-19T15:18:31.179Z,10.42
2023-05-19T15:19:38.041Z,10.93
2023-05-19T15:20:48.263Z,11.50
2023-05-19T15:21:55.753Z,11.50
2023-05-19T15:23:03.016Z,11.46
2023-05-19T15:24:10.276Z,11.32
2023-05-19T15:25:17.362Z,11.72
2023-05-19T15:26:25.160Z,12.90
2023-05-19T15:27:32.270Z,13.44
2023-05-19T15:28:39.131Z,13.69
2023-05-19T15:29:46.368Z,13.46
2023-05-19T15:30:53.814Z,13.38
2023-05-19T15:32:01.636Z,13.75